Time;durP1;ratioP1;P1;durP2;ratioP2;P2;SDS_P1;SDS_P2;PMS_P1;PMS_P2;Temp;Humidity;BMP_temperature;BMP_pressure;BME280_temperature;BME280_humidity;BME280_pressure;Samples;Min_cycle;Max_cycle;Signal;HPM_P1;HPM_P2
2022/03/26 00:00:34;;;;;;;;;;;;;;;;;;5052612;28;20419;-73
2022/03/26 00:03:14;;;;;;;;;;;;;;;;;;5052104;28;19940;-72
2022/03/26 00:05:43;;;;;;;;;;;;;;;;;;5054657;28;19945;-74
2022/03/26 00:08:10;;;;;;;;;;;;;;;;;;5055717;28;19952;-74
2022/03/26 00:10:40;;;;;;;;;;;;;;;;;;5055869;28;20070;-74
2022/03/26 00:13:09;;;;;;;;;;;;;;;;;;5055937;28;19993;-72
2022/03/26 00:15:36;;;;;;;;;;;;;;;;;;5055701;28;20363;-73
2022/03/26 00:18:04;;;;;;;;;;;;;;;;;;5056171;28;19945;-73
2022/03/26 00:20:33;;;;;;;;;;;;;;;;;;5055587;28;19974;-73
2022/03/26 00:23:01;;;;;;;;;;;;;;;;;;5054592;28;19952;-73
2022/03/26 00:25:29;;;;;;;;;;;;;;;;;;5055562;28;19953;-72
2022/03/26 00:27:56;;;;;;;;;;;;;;;;;;5055378;28;19951;-73
2022/03/26 00:30:24;;;;;;;;;;;;;;;;;;5056015;28;19949;-72
2022/03/26 00:32:53;;;;;;;;;;;;;;;;;;5054653;28;19961;-73
2022/03/26 00:35:21;;;;;;;;;;;;;;;;;;5054350;28;20445;-74
2022/03/26 00:37:52;;;;;;;;;;;;;;;;;;5055674;28;20323;-72
2022/03/26 00:40:20;;;;;;;;;;;;;;;;;;5053934;28;19979;-72
2022/03/26 00:42:50;;;;;;;;;;;;;;;;;;5054067;28;20040;-73
2022/03/26 00:45:19;;;;;;;;;;;;;;;;;;5054319;28;19960;-73
2022/03/26 00:47:49;;;;;;;;;;;;;;;;;;5055438;28;19960;-72
2022/03/26 00:50:17;;;;;;;;;;;;;;;;;;5054944;28;19973;-72
2022/03/26 00:52:44;;;;;;;;;;;;;;;;;;5055346;28;19949;-73
2022/03/26 00:55:12;;;;;;;;;;;;;;;;;;5053799;28;20300;-72
2022/03/26 00:57:41;;;;;;;;;;;;;;;;;;5055318;28;19965;-72
2022/03/26 01:00:12;;;;;;;;;;;;;;;;;;5053672;28;20366;-72
2022/03/26 01:02:39;;;;;;;;;;;;;;;;;;5053392;28;19947;-73
2022/03/26 01:05:07;;;;;;;;;;;;;;;;;;5054936;28;19940;-73
2022/03/26 01:07:35;;;;;;;;;;;;;;;;;;5054869;28;19944;-73
2022/03/26 01:10:02;;;;;;;;;;;;;;;;;;5054600;28;20032;-72
2022/03/26 01:12:32;;;;;;;;;;;;;;;;;;5053833;28;20429;-73
2022/03/26 01:15:00;;;;;;;;;;;;;;;;;;5053620;28;19980;-74
2022/03/26 01:17:27;;;;;;;;;;;;;;;;;;5054459;28;19944;-73
2022/03/26 01:19:55;;;;;;;;;;;;;;;;;;5054357;28;19945;-74
2022/03/26 01:22:23;;;;;;;;;;;;;;;;;;5053134;28;19954;-73
2022/03/26 01:24:51;;;;;;;;;;;;;;;;;;5054300;28;19943;-72
2022/03/26 01:27:22;;;;;;;;;;;;;;;;;;5052802;28;20352;-73
2022/03/26 01:29:51;;;;;;;;;;;;;;;;;;5053760;28;19937;-72
2022/03/26 01:32:19;;;;;;;;;;;;;;;;;;5053953;28;20405;-73
2022/03/26 01:34:49;;;;;;;;;;;;;;;;;;5054654;28;19948;-73
2022/03/26 01:37:20;;;;;;;;;;;;;;;;;;5054410;28;19942;-72
2022/03/26 01:39:48;;;;;;;;;;;;;;;;;;5053443;28;19959;-73
2022/03/26 01:42:15;;;;;;;;;;;;;;;;;;5054048;28;19951;-74
2022/03/26 01:44:44;;;;;;;;;;;;;;;;;;5054400;28;20000;-73
2022/03/26 01:47:11;;;;;;;;;;;;;;;;;;5052831;28;20030;-73
2022/03/26 01:49:43;;;;;;;;;;;;;;;;;;5054195;28;19944;-73
2022/03/26 01:52:10;;;;;;;;;;;;;;;;;;5053873;28;19975;-73
2022/03/26 01:54:38;;;;;;;;;;;;;;;;;;5054175;28;19944;-73
2022/03/26 01:57:10;;;;;;;;;;;;;;;;;;5054250;28;19952;-74
2022/03/26 01:59:39;;;;;;;;;;;;;;;;;;5053427;28;19954;-72
2022/03/26 02:02:06;;;;;;;;;;;;;;;;;;5052503;28;19955;-73
2022/03/26 02:04:37;;;;;;;;;;;;;;;;;;5053780;28;19940;-73
2022/03/26 02:07:04;;;;;;;;;;;;;;;;;;5053603;28;19951;-74
2022/03/26 02:09:37;;;;;;;;;;;;;;;;;;5053726;28;20314;-72
2022/03/26 02:12:05;;;;;;;;;;;;;;;;;;5052606;28;20308;-72
2022/03/26 02:14:38;;;;;;;;;;;;;;;;;;5052304;28;19984;-74
2022/03/26 02:17:05;;;;;;;;;;;;;;;;;;5052503;28;19956;-72
2022/03/26 02:19:37;;;;;;;;;;;;;;;;;;5053227;28;19950;-74
2022/03/26 02:22:04;;;;;;;;;;;;;;;;;;5053632;28;20000;-73
2022/03/26 02:24:33;;;;;;;;;;;;;;;;;;5051945;28;20276;-73
2022/03/26 02:27:00;;;;;;;;;;;;;;;;;;5052811;28;20374;-73
2022/03/26 02:29:28;;;;;;;;;;;;;;;;;;5053132;28;19955;-73
2022/03/26 02:31:57;;;;;;;;;;;;;;;;;;5053071;28;19970;-72
2022/03/26 02:34:26;;;;;;;;;;;;;;;;;;5053217;28;19998;-73
2022/03/26 02:37:08;;;;;;;;;;;;;;;;;;5053488;28;19965;-72
2022/03/26 02:39:37;;;;;;;;;;;;;;;;;;5052791;28;19955;-73
2022/03/26 02:42:07;;;;;;;;;;;;;;;;;;5052020;28;19949;-73
2022/03/26 02:44:34;;;;;;;;;;;;;;;;;;5051884;28;20412;-73
2022/03/26 02:47:02;;;;;;;;;;;;;;;;;;5051904;28;20004;-72
2022/03/26 02:49:30;;;;;;;;;;;;;;;;;;5068773;28;19942;-73
2022/03/26 02:51:57;;;;;;;;;;;;;;;;;;5053067;28;19964;-72
2022/03/26 02:54:25;;;;;;;;;;;;;;;;;;5051738;28;19966;-72
2022/03/26 02:56:57;;;;;;;;;;;;;;;;;;5052865;28;20047;-74
2022/03/26 02:59:28;;;;;;;;;;;;;;;;;;5052964;28;20034;-74
2022/03/26 03:01:55;;;;;;;;;;;;;;;;;;5052661;28;19945;-72
2022/03/26 03:04:23;;;;;;;;;;;;;;;;;;5052655;28;20045;-72
2022/03/26 03:06:52;;;;;;;;;;;;;;;;;;5052843;28;20351;-73
2022/03/26 03:09:20;;;;;;;;;;;;;;;;;;5051539;28;20515;-73
2022/03/26 03:11:51;;;;;;;;;;;;;;;;;;5052539;28;19947;-73
2022/03/26 03:14:18;;;;;;;;;;;;;;;;;;5052643;28;20314;-72
2022/03/26 03:16:46;;;;;;;;;;;;;;;;;;5051505;28;19946;-72
2022/03/26 03:19:13;;;;;;;;;;;;;;;;;;5051218;28;20324;-72
2022/03/26 03:21:42;;;;;;;;;;;;;;;;;;5051350;28;20296;-73
2022/03/26 03:24:09;;;;;;;;;;;;;;;;;;5052703;28;20373;-73
2022/03/26 03:26:36;;;;;;;;;;;;;;;;;;5052482;28;20415;-73
2022/03/26 03:29:04;;;;;;;;;;;;;;;;;;5052437;28;19970;-72
2022/03/26 03:31:33;;;;;;;;;;;;;;;;;;5052442;28;20479;-73
2022/03/26 03:34:03;;;;;;;;;;;;;;;;;;5053058;28;19942;-72
2022/03/26 03:36:31;;;;;;;;;;;;;;;;;;5052917;28;19950;-73
2022/03/26 03:38:58;;;;;;;;;;;;;;;;;;5053831;28;20351;-72
2022/03/26 03:41:28;;;;;;;;;;;;;;;;;;5056522;28;20331;-73
2022/03/26 03:43:57;;;;;;;;;;;;;;;;;;5056470;28;19942;-72
2022/03/26 03:46:30;;;;;;;;;;;;;;;;;;5056487;28;20376;-72
2022/03/26 03:48:57;;;;;;;;;;;;;;;;;;5056491;28;20377;-72
2022/03/26 03:51:27;;;;;;;;;;;;;;;;;;5055883;28;20410;-73
2022/03/26 03:53:55;;;;;;;;;;;;;;;;;;5056422;28;19967;-73
2022/03/26 03:56:23;;;;;;;;;;;;;;;;;;5056545;28;20071;-74
2022/03/26 03:58:50;;;;;;;;;;;;;;;;;;5054712;28;19945;-73
2022/03/26 04:01:18;;;;;;;;;;;;;;;;;;5056073;28;19957;-73
2022/03/26 04:03:46;;;;;;;;;;;;;;;;;;5055647;28;19948;-73
2022/03/26 04:06:16;;;;;;;;;;;;;;;;;;5056088;28;20056;-72
2022/03/26 04:08:44;;;;;;;;;;;;;;;;;;5056098;28;19954;-73
2022/03/26 04:11:15;;;;;;;;;;;;;;;;;;5055945;28;20330;-73
2022/03/26 04:13:42;;;;;;;;;;;;;;;;;;5054644;28;19955;-73
2022/03/26 04:16:10;;;;;;;;;;;;;;;;;;5055928;28;19943;-72
2022/03/26 04:18:37;;;;;;;;;;;;;;;;;;5055536;28;19938;-72
2022/03/26 04:21:05;;;;;;;;;;;;;;;;;;5055726;28;20390;-72
2022/03/26 04:23:32;;;;;;;;;;;;;;;;;;5055021;28;20016;-72
2022/03/26 04:26:00;;;;;;;;;;;;;;;;;;5055196;28;20451;-72
2022/03/26 04:28:28;;;;;;;;;;;;;;;;;;5055266;28;19976;-73
2022/03/26 04:30:56;;;;;;;;;;;;;;;;;;5055189;28;19947;-73
2022/03/26 04:33:23;;;;;;;;;;;;;;;;;;5054593;28;20362;-72
2022/03/26 04:35:51;;;;;;;;;;;;;;;;;;5055626;28;20247;-72
2022/03/26 04:38:19;;;;;;;;;;;;;;;;;;5055040;28;19951;-73
2022/03/26 04:40:50;;;;;;;;;;;;;;;;;;5052791;28;20061;-73
2022/03/26 04:43:18;;;;;;;;;;;;;;;;;;5050781;28;19940;-73
2022/03/26 04:45:45;;;;;;;;;;;;;;;;;;5035555;28;20384;-73
2022/03/26 04:48:14;;;;;;;;;;;;;;;;;;5034901;28;19937;-74
2022/03/26 04:50:44;;;;;;;;;;;;;;;;;;5033740;28;19970;-72
2022/03/26 04:53:13;;;;;;;;;;;;;;;;;;5035358;28;20389;-73
2022/03/26 04:55:40;;;;;;;;;;;;;;;;;;5035813;28;20267;-72
2022/03/26 04:58:08;;;;;;;;;;;;;;;;;;5034842;28;19947;-73
2022/03/26 05:00:35;;;;;;;;;;;;;;;;;;5034814;28;20003;-72
2022/03/26 05:03:03;;;;;;;;;;;;;;;;;;5034657;28;19944;-74
2022/03/26 05:05:30;;;;;;;;;;;;;;;;;;5034920;28;19938;-73
2022/03/26 05:07:59;;;;;;;;;;;;;;;;;;5035101;28;20094;-73
2022/03/26 05:10:29;;;;;;;;;;;;;;;;;;5039587;28;19952;-72
2022/03/26 05:12:58;;;;;;;;;;;;;;;;;;5048852;28;19945;-74
2022/03/26 05:15:29;;;;;;;;;;;;;;;;;;5043060;28;20052;-74
2022/03/26 05:17:56;;;;;;;;;;;;;;;;;;5052396;28;19952;-76
2022/03/26 05:20:24;;;;;;;;;;;;;;;;;;5033442;28;19949;-74
2022/03/26 05:22:52;;;;;;;;;;;;;;;;;;5051033;28;20310;-73
2022/03/26 05:25:19;;;;;;;;;;;;;;;;;;5053828;28;20441;-74
2022/03/26 05:27:48;;;;;;;;;;;;;;;;;;5039481;28;19972;-76
2022/03/26 05:30:18;;;;;;;;;;;;;;;;;;5050084;28;20041;-76
2022/03/26 05:32:45;;;;;;;;;;;;;;;;;;5034674;28;19945;-76
2022/03/26 05:35:16;;;;;;;;;;;;;;;;;;5034102;28;19951;-76
2022/03/26 05:37:43;;;;;;;;;;;;;;;;;;5034724;28;19970;-76
2022/03/26 05:40:11;;;;;;;;;;;;;;;;;;5034378;28;19944;-76
2022/03/26 05:42:39;;;;;;;;;;;;;;;;;;5034529;28;19947;-76
2022/03/26 05:45:06;;;;;;;;;;;;;;;;;;5041183;28;19970;-76
2022/03/26 05:47:35;;;;;;;;;;;;;;;;;;5036920;28;19955;-75
2022/03/26 05:50:03;;;;;;;;;;;;;;;;;;5034612;28;19950;-75
2022/03/26 05:52:30;;;;;;;;;;;;;;;;;;5033187;28;19941;-75
2022/03/26 05:55:00;;;;;;;;;;;;;;;;;;5033271;28;19947;-75
2022/03/26 05:57:28;;;;;;;;;;;;;;;;;;5053809;28;19990;-75
2022/03/26 06:00:00;;;;;;;;;;;;;;;;;;5054000;28;20046;-75
2022/03/26 06:02:29;;;;;;;;;;;;;;;;;;5053296;28;20010;-75
2022/03/26 06:04:59;;;;;;;;;;;;;;;;;;5053698;28;19959;-75
2022/03/26 06:07:26;;;;;;;;;;;;;;;;;;5052809;28;19947;-75
2022/03/26 06:09:53;;;;;;;;;;;;;;;;;;5052681;28;19946;-75
2022/03/26 06:12:21;;;;;;;;;;;;;;;;;;5044987;28;20011;-75
2022/03/26 06:14:49;;;;;;;;;;;;;;;;;;5048584;28;19957;-75
2022/03/26 06:17:16;;;;;;;;;;;;;;;;;;5033716;28;19948;-75
2022/03/26 06:19:44;;;;;;;;;;;;;;;;;;5038055;28;19953;-76
2022/03/26 06:22:15;;;;;;;;;;;;;;;;;;5044848;28;20425;-75
2022/03/26 06:24:42;;;;;;;;;;;;;;;;;;5033762;28;19960;-76
2022/03/26 06:27:10;;;;;;;;;;;;;;;;;;5033372;28;20456;-76
2022/03/26 06:29:41;;;;;;;;;;;;;;;;;;5039099;28;19946;-75
2022/03/26 06:32:09;;;;;;;;;;;;;;;;;;5052597;28;19950;-75
2022/03/26 06:34:37;;;;;;;;;;;;;;;;;;5053521;28;19948;-75
2022/03/26 06:37:05;;;;;;;;;;;;;;;;;;5042756;28;19950;-74
2022/03/26 06:39:32;;;;;;;;;;;;;;;;;;5031561;28;19951;-75
2022/03/26 06:42:00;;;;;;;;;;;;;;;;;;5030644;28;19955;-75
2022/03/26 06:44:27;;;;;;;;;;;;;;;;;;5035052;28;20531;-75
2022/03/26 06:46:55;;;;;;;;;;;;;;;;;;5040644;28;19955;-75
2022/03/26 06:49:23;;;;;;;;;;;;;;;;;;5052817;28;19947;-75
2022/03/26 06:51:51;;;;;;;;;;;;;;;;;;5052613;28;19940;-75
2022/03/26 06:54:20;;;;;;;;;;;;;;;;;;5053320;28;19948;-75
2022/03/26 06:56:47;;;;;;;;;;;;;;;;;;5052741;28;19956;-75
2022/03/26 06:59:17;;;;;;;;;;;;;;;;;;5051280;28;19996;-74
2022/03/26 07:01:45;;;;;;;;;;;;;;;;;;5065558;28;19943;-75
2022/03/26 07:04:16;;;;;;;;;;;;;;;;;;5047205;28;20020;-75
2022/03/26 07:06:47;;;;;;;;;;;;;;;;;;5052294;28;19958;-74
2022/03/26 07:09:15;;;;;;;;;;;;;;;;;;5113692;22;19963;-73
2022/03/26 07:11:43;;;;;;;;;;;;;;;;;;5023714;28;19952;-75
2022/03/26 07:14:10;;;;;;;;;;;;;;;;;;5046093;28;19997;-76
2022/03/26 07:16:39;;;;;;;;;;;;;;;;;;5043181;28;19953;-73
2022/03/26 07:19:07;;;;;;;;;;;;;;;;;;5033248;28;20037;-74
2022/03/26 07:21:36;;;;;;;;;;;;;;;;;;5035730;28;19941;-74
2022/03/26 07:24:04;;;;;;;;;;;;;;;;;;5031874;28;20042;-73
2022/03/26 07:26:32;;;;;;;;;;;;;;;;;;5030856;28;19962;-74
2022/03/26 07:29:02;;;;;;;;;;;;;;;;;;5030211;28;19937;-76
2022/03/26 07:31:30;;;;;;;;;;;;;;;;;;5033512;28;19944;-77
2022/03/26 07:33:58;;;;;;;;;;;;;;;;;;5034580;28;19946;-75
2022/03/26 07:36:35;;;;;;;;;;;;;;;;;;5032185;28;19950;-77
2022/03/26 07:39:04;;;;;;;;;;;;;;;;;;5022818;28;19993;-74
2022/03/26 07:41:33;;;;;;;;;;;;;;;;;;5030653;28;19955;-75
2022/03/26 07:44:01;;;;;;;;;;;;;;;;;;5029309;28;19952;-75
2022/03/26 07:46:33;;;;;;;;;;;;;;;;;;5024820;28;20311;-75
2022/03/26 07:49:00;;;;;;;;;;;;;;;;;;5027736;28;19946;-74
2022/03/26 07:51:28;;;;;;;;;;;;;;;;;;5034200;28;19947;-74
2022/03/26 07:53:56;;;;;;;;;;;;;;;;;;5035426;28;19960;-74
2022/03/26 07:56:27;;;;;;;;;;;;;;;;;;5030139;28;19947;-75
2022/03/26 07:59:02;;;;;;;;;;;;;;;;;;5026744;28;19953;-74
2022/03/26 08:01:30;;;;;;;;;;;;;;;;;;5028466;28;19947;-74
2022/03/26 08:04:06;;;;;;;;;;;;;;;;;;5033335;28;19949;-75
2022/03/26 08:06:34;;;;;;;;;;;;;;;;;;5050241;28;19942;-75
2022/03/26 08:09:02;;;;;;;;;;;;;;;;;;5030458;28;20036;-75
2022/03/26 08:11:31;;;;;;;;;;;;;;;;;;5050372;28;20001;-75
2022/03/26 08:13:58;;;;;;;;;;;;;;;;;;5035441;28;19947;-75
2022/03/26 08:16:26;;;;;;;;;;;;;;;;;;5035176;28;19972;-75
2022/03/26 08:18:55;;;;;;;;;;;;;;;;;;5050589;28;19942;-75
2022/03/26 08:21:22;;;;;;;;;;;;;;;;;;5050061;28;19963;-76
2022/03/26 08:23:53;;;;;;;;;;;;;;;;;;5035234;28;20367;-76
2022/03/26 08:26:22;;;;;;;;;;;;;;;;;;5050134;28;19948;-75
2022/03/26 08:28:52;;;;;;;;;;;;;;;;;;5023686;28;19952;-74
2022/03/26 08:31:20;;;;;;;;;;;;;;;;;;5030568;28;19954;-75
2022/03/26 08:33:53;;;;;;;;;;;;;;;;;;5033108;28;19958;-77
2022/03/26 08:36:21;;;;;;;;;;;;;;;;;;5046696;28;19954;-75
2022/03/26 08:38:51;;;;;;;;;;;;;;;;;;5029287;28;20352;-74
2022/03/26 08:41:21;;;;;;;;;;;;;;;;;;5027353;28;19985;-74
2022/03/26 08:43:50;;;;;;;;;;;;;;;;;;5027575;28;20297;-75
2022/03/26 08:46:23;;;;;;;;;;;;;;;;;;5028192;28;19951;-74
2022/03/26 08:48:56;;;;;;;;;;;;;;;;;;5033039;28;20023;-74
2022/03/26 08:51:23;;;;;;;;;;;;;;;;;;5029600;28;19968;-75
2022/03/26 08:53:51;;;;;;;;;;;;;;;;;;5028745;28;19945;-73
2022/03/26 08:56:19;;;;;;;;;;;;;;;;;;5029743;28;20010;-75
2022/03/26 08:58:47;;;;;;;;;;;;;;;;;;5027756;28;19943;-74
2022/03/26 09:01:15;;;;;;;;;;;;;;;;;;5028087;28;19988;-75
2022/03/26 09:03:44;;;;;;;;;;;;;;;;;;5042698;28;19948;-74
2022/03/26 09:06:12;;;;;;;;;;;;;;;;;;5022759;28;20002;-72
2022/03/26 09:08:39;;;;;;;;;;;;;;;;;;5031555;28;19956;-73
2022/03/26 09:11:06;;;;;;;;;;;;;;;;;;5028897;28;19996;-73
2022/03/26 09:13:34;;;;;;;;;;;;;;;;;;5031920;28;20424;-76
2022/03/26 09:16:03;;;;;;;;;;;;;;;;;;5031062;28;20468;-74
2022/03/26 09:18:30;;;;;;;;;;;;;;;;;;5039566;28;20038;-75
2022/03/26 09:20:58;;;;;;;;;;;;;;;;;;5026326;28;19975;-74
2022/03/26 09:23:31;;;;;;;;;;;;;;;;;;5022536;28;19948;-75
2022/03/26 09:26:00;;;;;;;;;;;;;;;;;;5025149;28;19946;-75
2022/03/26 09:28:31;;;;;;;;;;;;;;;;;;5022289;28;19941;-76
2022/03/26 09:31:02;;;;;;;;;;;;;;;;;;5021297;28;19954;-75
2022/03/26 09:33:30;;;;;;;;;;;;;;;;;;5018935;28;19955;-75
2022/03/26 09:36:05;;;;;;;;;;;;;;;;;;5037585;28;19970;-75
2022/03/26 09:38:33;;;;;;;;;;;;;;;;;;5032392;28;19942;-74
2022/03/26 09:41:02;;;;;;;;;;;;;;;;;;5033185;28;19950;-75
2022/03/26 09:43:29;;;;;;;;;;;;;;;;;;5019983;28;19942;-74
2022/03/26 09:45:58;;;;;;;;;;;;;;;;;;5031595;28;19992;-76
2022/03/26 09:48:27;;;;;;;;;;;;;;;;;;5023737;28;20032;-74
2022/03/26 09:50:56;;;;;;;;;;;;;;;;;;5020572;28;19945;-74
2022/03/26 09:53:24;;;;;;;;;;;;;;;;;;5023394;28;20407;-76
2022/03/26 09:55:52;;;;;;;;;;;;;;;;;;5018304;28;20347;-75
2022/03/26 09:58:23;;;;;;;;;;;;;;;;;;5011851;28;19941;-77
2022/03/26 10:00:53;;;;;;;;;;;;;;;;;;5012072;28;20044;-76
2022/03/26 10:03:27;;;;;;;;;;;;;;;;;;5013350;28;19946;-75
2022/03/26 10:06:02;;;;;;;;;;;;;;;;;;5012026;28;20037;-74
2022/03/26 10:08:31;;;;;;;;;;;;;;;;;;5013887;28;19949;-74
2022/03/26 10:11:00;;;;;;;;;;;;;;;;;;5037830;28;19962;-74
2022/03/26 10:13:30;;;;;;;;;;;;;;;;;;5033309;28;20043;-73
2022/03/26 10:15:58;;;;;;;;;;;;;;;;;;5032941;28;19978;-74
2022/03/26 10:18:26;;;;;;;;;;;;;;;;;;5033395;28;20452;-75
2022/03/26 10:20:53;;;;;;;;;;;;;;;;;;5025767;28;19940;-75
2022/03/26 10:23:22;;;;;;;;;;;;;;;;;;5030317;28;19945;-73
2022/03/26 10:25:49;;;;;;;;;;;;;;;;;;5031591;28;19954;-77
2022/03/26 10:28:17;;;;;;;;;;;;;;;;;;5026331;28;19969;-76
2022/03/26 10:33:31;;;;;;;;;;;;;;;;;;5049283;28;19979;-76
2022/03/26 10:35:59;;;;;;;;;;;;;;;;;;5028453;28;20264;-77
2022/03/26 10:38:27;;;;;;;;;;;;;;;;;;5027801;28;19942;-79
2022/03/26 10:40:54;;;;;;;;;;;;;;;;;;5030364;28;19944;-76
2022/03/26 10:43:23;;;;;;;;;;;;;;;;;;5021019;28;20872;-77
2022/03/26 10:45:50;;;;;;;;;;;;;;;;;;5031281;28;19951;-76
2022/03/26 10:48:18;;;;;;;;;;;;;;;;;;5032406;28;19949;-76
2022/03/26 10:50:47;;;;;;;;;;;;;;;;;;5033589;28;19949;-78
2022/03/26 10:53:20;;;;;;;;;;;;;;;;;;5033197;28;19949;-77
2022/03/26 10:55:49;;;;;;;;;;;;;;;;;;5033255;28;19941;-76
2022/03/26 10:58:17;;;;;;;;;;;;;;;;;;5033178;28;19952;-79
2022/03/26 11:00:46;;;;;;;;;;;;;;;;;;5032035;28;20046;-79
2022/03/26 11:03:18;;;;;;;;;;;;;;;;;;5033093;28;19943;-79
2022/03/26 11:05:46;;;;;;;;;;;;;;;;;;5033208;28;19952;-79
2022/03/26 11:08:15;;;;;;;;;;;;;;;;;;5033456;28;20455;-76
2022/03/26 11:10:43;;;;;;;;;;;;;;;;;;5033534;28;20399;-76
2022/03/26 11:13:10;;;;;;;;;;;;;;;;;;5031633;28;19951;-79
2022/03/26 11:15:40;;;;;;;;;;;;;;;;;;5032792;28;19958;-77
2022/03/26 11:18:09;;;;;;;;;;;;;;;;;;5032748;28;19944;-80
2022/03/26 11:20:36;;;;;;;;;;;;;;;;;;5033179;28;19941;-77
2022/03/26 11:23:04;;;;;;;;;;;;;;;;;;5033455;28;20033;-76
2022/03/26 11:25:32;;;;;;;;;;;;;;;;;;5031813;28;19989;-79
2022/03/26 11:28:02;;;;;;;;;;;;;;;;;;5031162;28;20365;-79
2022/03/26 11:30:38;;;;;;;;;;;;;;;;;;5031606;28;19954;-80
2022/03/26 11:33:05;;;;;;;;;;;;;;;;;;5031952;28;20007;-76
2022/03/26 11:35:33;;;;;;;;;;;;;;;;;;5033128;28;20282;-76
2022/03/26 11:38:01;;;;;;;;;;;;;;;;;;5032775;28;19961;-79
2022/03/26 11:40:29;;;;;;;;;;;;;;;;;;5031633;28;19948;-77
2022/03/26 11:42:57;;;;;;;;;;;;;;;;;;5033155;28;19947;-77
2022/03/26 11:51:00;;;;;;;;;;;;;;;;;;5033053;28;20003;-79
2022/03/26 11:53:37;;;;;;;;;;;;;;;;;;5032469;28;19951;-79
2022/03/26 11:56:05;;;;;;;;;;;;;;;;;;5032621;28;20000;-77
2022/03/26 11:58:35;;;;;;;;;;;;;;;;;;5031652;28;20292;-77
2022/03/26 12:01:02;;;;;;;;;;;;;;;;;;5034520;28;19960;-76
2022/03/26 12:03:30;;;;;;;;;;;;;;;;;;5035044;28;20435;-79
2022/03/26 12:08:45;;;;;;;;;;;;;;;;;;5036247;28;19991;-76
2022/03/26 12:11:15;;;;;;;;;;;;;;;;;;5036027;28;19952;-75
2022/03/26 12:13:44;;;;;;;;;;;;;;;;;;5036323;28;19942;-79
2022/03/26 12:16:12;;;;;;;;;;;;;;;;;;5034050;28;19957;-78
2022/03/26 12:18:43;;;;;;;;;;;;;;;;;;5034529;28;19945;-79
2022/03/26 12:21:15;;;;;;;;;;;;;;;;;;5034982;28;19975;-76
2022/03/26 12:23:46;;;;;;;;;;;;;;;;;;5034468;28;19953;-76
2022/03/26 12:26:14;;;;;;;;;;;;;;;;;;5033892;28;20386;-75
2022/03/26 12:28:42;;;;;;;;;;;;;;;;;;5030980;28;19948;-79
2022/03/26 12:31:10;;;;;;;;;;;;;;;;;;5035597;28;19985;-78
2022/03/26 12:33:40;;;;;;;;;;;;;;;;;;5034135;28;20058;-75
2022/03/26 12:36:11;;;;;;;;;;;;;;;;;;5035496;28;20328;-78
2022/03/26 12:38:43;;;;;;;;;;;;;;;;;;5034612;28;20552;-75
2022/03/26 12:41:12;;;;;;;;;;;;;;;;;;5035603;28;19954;-78
2022/03/26 12:43:42;;;;;;;;;;;;;;;;;;5035556;28;20000;-78
2022/03/26 12:46:29;;;;;;;;;;;;;;;;;;5035438;28;19956;-78
2022/03/26 12:48:56;;;;;;;;;;;;;;;;;;5035549;28;19949;-78
2022/03/26 12:51:24;;;;;;;;;;;;;;;;;;5034137;28;20054;-76
2022/03/26 12:53:53;;;;;;;;;;;;;;;;;;5035478;28;19956;-76
2022/03/26 12:56:23;;;;;;;;;;;;;;;;;;5033912;28;19950;-75
2022/03/26 12:58:59;;;;;;;;;;;;;;;;;;5035006;28;19951;-79
2022/03/26 13:01:28;;;;;;;;;;;;;;;;;;5035193;28;19951;-75
2022/03/26 13:03:57;;;;;;;;;;;;;;;;;;5033466;28;20308;-78
2022/03/26 13:06:25;;;;;;;;;;;;;;;;;;5035114;28;19978;-76
2022/03/26 13:08:54;;;;;;;;;;;;;;;;;;5033457;28;20065;-78
2022/03/26 13:11:22;;;;;;;;;;;;;;;;;;5034000;28;19978;-78
2022/03/26 13:13:50;;;;;;;;;;;;;;;;;;5033916;28;20048;-75
2022/03/26 13:16:19;;;;;;;;;;;;;;;;;;5034581;28;19957;-79
2022/03/26 13:18:47;;;;;;;;;;;;;;;;;;5034919;28;19956;-76
2022/03/26 13:21:15;;;;;;;;;;;;;;;;;;5033476;28;19956;-79
2022/03/26 13:23:43;;;;;;;;;;;;;;;;;;5033464;28;20337;-77
2022/03/26 13:26:15;;;;;;;;;;;;;;;;;;5034671;28;20041;-77
2022/03/26 13:28:45;;;;;;;;;;;;;;;;;;5033252;28;19954;-75
2022/03/26 13:31:13;;;;;;;;;;;;;;;;;;5034563;28;19963;-75
2022/03/26 13:33:42;;;;;;;;;;;;;;;;;;5034440;28;19953;-79
2022/03/26 13:36:10;;;;;;;;;;;;;;;;;;5034494;28;20041;-78
2022/03/26 13:38:41;;;;;;;;;;;;;;;;;;5033127;28;19963;-75
2022/03/26 13:41:12;;;;;;;;;;;;;;;;;;5034545;28;19954;-77
2022/03/26 13:43:39;;;;;;;;;;;;;;;;;;5034715;28;20400;-76
2022/03/26 13:46:07;;;;;;;;;;;;;;;;;;5034532;28;19961;-76
2022/03/26 13:48:34;;;;;;;;;;;;;;;;;;5034263;28;19977;-80
2022/03/26 13:51:02;;;;;;;;;;;;;;;;;;5034126;28;20005;-78
2022/03/26 13:53:30;;;;;;;;;;;;;;;;;;5030287;28;19961;-76
2022/03/26 13:56:01;;;;;;;;;;;;;;;;;;5016034;28;19953;-78
2022/03/26 13:58:29;;;;;;;;;;;;;;;;;;5029470;28;19984;-76
2022/03/26 14:01:04;;;;;;;;;;;;;;;;;;5014197;28;20400;-75
2022/03/26 14:03:34;;;;;;;;;;;;;;;;;;5029266;28;19980;-78
2022/03/26 14:06:03;;;;;;;;;;;;;;;;;;5029228;28;19961;-75
2022/03/26 14:08:31;;;;;;;;;;;;;;;;;;5014189;28;20123;-78
2022/03/26 14:10:58;;;;;;;;;;;;;;;;;;5029615;28;20004;-78
2022/03/26 14:13:27;;;;;;;;;;;;;;;;;;5014327;28;19954;-78
2022/03/26 14:15:59;;;;;;;;;;;;;;;;;;5028911;28;19988;-76
2022/03/26 14:18:28;;;;;;;;;;;;;;;;;;5028766;28;19950;-78
2022/03/26 14:20:56;;;;;;;;;;;;;;;;;;5012614;28;20049;-78
2022/03/26 14:23:24;;;;;;;;;;;;;;;;;;5013801;28;19959;-78
2022/03/26 14:25:52;;;;;;;;;;;;;;;;;;5014087;28;20380;-78
2022/03/26 14:28:20;;;;;;;;;;;;;;;;;;5013621;28;19955;-78
2022/03/26 14:30:48;;;;;;;;;;;;;;;;;;5029228;28;19957;-78
2022/03/26 14:33:17;;;;;;;;;;;;;;;;;;5014184;28;19955;-78
2022/03/26 14:35:47;;;;;;;;;;;;;;;;;;5028571;28;20443;-78
2022/03/26 14:38:15;;;;;;;;;;;;;;;;;;5012453;28;19971;-75
2022/03/26 14:40:44;;;;;;;;;;;;;;;;;;5013595;28;20191;-76
2022/03/26 14:43:14;;;;;;;;;;;;;;;;;;5028553;28;19943;-80
2022/03/26 14:45:47;;;;;;;;;;;;;;;;;;5014184;28;20053;-79
2022/03/26 14:48:31;;;;;;;;;;;;;;;;;;5014255;28;20382;-77
2022/03/26 14:51:01;;;;;;;;;;;;;;;;;;5013884;28;19963;-78
2022/03/26 14:53:30;;;;;;;;;;;;;;;;;;5013851;28;19938;-79
2022/03/26 14:56:01;;;;;;;;;;;;;;;;;;5028979;28;20414;-79
2022/03/26 14:58:29;;;;;;;;;;;;;;;;;;5013895;28;20035;-77
2022/03/26 15:00:58;;;;;;;;;;;;;;;;;;5013767;28;20059;-79
2022/03/26 15:03:26;;;;;;;;;;;;;;;;;;5028832;28;19955;-80
2022/03/26 15:05:57;;;;;;;;;;;;;;;;;;5013206;28;20051;-75
2022/03/26 15:08:28;;;;;;;;;;;;;;;;;;5029193;28;19998;-79
2022/03/26 15:10:58;;;;;;;;;;;;;;;;;;5013676;28;19977;-80
2022/03/26 15:13:25;;;;;;;;;;;;;;;;;;5029063;28;20092;-80
2022/03/26 15:15:55;;;;;;;;;;;;;;;;;;5013198;28;19963;-77
2022/03/26 15:18:23;;;;;;;;;;;;;;;;;;5028615;28;20007;-77
2022/03/26 15:21:00;;;;;;;;;;;;;;;;;;5028835;28;19952;-76
2022/03/26 15:23:27;;;;;;;;;;;;;;;;;;5013715;28;20033;-76
2022/03/26 15:25:57;;;;;;;;;;;;;;;;;;5013277;28;20400;-80
2022/03/26 15:28:25;;;;;;;;;;;;;;;;;;5011913;28;20043;-77
2022/03/26 15:30:54;;;;;;;;;;;;;;;;;;5013760;28;19959;-76
2022/03/26 15:33:25;;;;;;;;;;;;;;;;;;5013751;28;20036;-76
2022/03/26 15:35:53;;;;;;;;;;;;;;;;;;5030995;28;20439;-77
2022/03/26 15:38:24;;;;;;;;;;;;;;;;;;5017117;28;19951;-79
2022/03/26 15:40:53;;;;;;;;;;;;;;;;;;5017142;28;19968;-79
2022/03/26 15:43:23;;;;;;;;;;;;;;;;;;5017201;28;19962;-76
2022/03/26 15:45:52;;;;;;;;;;;;;;;;;;5032253;28;19957;-77
2022/03/26 15:48:19;;;;;;;;;;;;;;;;;;5017323;28;19959;-77
2022/03/26 15:50:48;;;;;;;;;;;;;;;;;;5017138;28;19960;-78
2022/03/26 15:53:16;;;;;;;;;;;;;;;;;;5016984;28;19955;-79
2022/03/26 15:55:44;;;;;;;;;;;;;;;;;;5016863;28;19973;-78
2022/03/26 15:58:15;;;;;;;;;;;;;;;;;;5015363;28;19993;-76
2022/03/26 16:00:47;;;;;;;;;;;;;;;;;;5016701;28;19950;-79
2022/03/26 16:03:18;;;;;;;;;;;;;;;;;;5016817;28;20055;-76
2022/03/26 16:05:46;;;;;;;;;;;;;;;;;;5016068;28;19954;-79
2022/03/26 16:08:14;;;;;;;;;;;;;;;;;;5016874;28;19951;-79
2022/03/26 16:10:46;;;;;;;;;;;;;;;;;;5016894;28;19977;-80
2022/03/26 16:13:14;;;;;;;;;;;;;;;;;;5016712;28;20004;-79
2022/03/26 16:15:46;;;;;;;;;;;;;;;;;;5015182;28;19958;-80
2022/03/26 16:18:17;;;;;;;;;;;;;;;;;;5016458;28;20021;-79
2022/03/26 16:20:48;;;;;;;;;;;;;;;;;;5016288;28;20327;-80
2022/03/26 16:23:17;;;;;;;;;;;;;;;;;;5016561;28;20057;-77
2022/03/26 16:25:44;;;;;;;;;;;;;;;;;;5015392;28;20312;-76
2022/03/26 16:28:13;;;;;;;;;;;;;;;;;;5016114;28;19960;-79
2022/03/26 16:30:41;;;;;;;;;;;;;;;;;;5016583;28;19953;-76
2022/03/26 16:33:11;;;;;;;;;;;;;;;;;;5030896;28;19962;-80
2022/03/26 16:35:39;;;;;;;;;;;;;;;;;;5015977;28;19973;-77
2022/03/26 16:38:07;;;;;;;;;;;;;;;;;;5015667;28;19984;-79
2022/03/26 16:40:36;;;;;;;;;;;;;;;;;;5030756;28;19953;-79
2022/03/26 16:43:04;;;;;;;;;;;;;;;;;;5031326;28;19957;-77
2022/03/26 16:45:32;;;;;;;;;;;;;;;;;;5030659;28;19960;-76
2022/03/26 16:48:01;;;;;;;;;;;;;;;;;;5016009;28;20322;-76
2022/03/26 16:50:30;;;;;;;;;;;;;;;;;;5015685;28;20313;-80
2022/03/26 16:52:58;;;;;;;;;;;;;;;;;;5014505;28;19955;-78
2022/03/26 16:55:28;;;;;;;;;;;;;;;;;;5015641;28;19960;-77
2022/03/26 16:57:59;;;;;;;;;;;;;;;;;;5030787;28;19996;-76
2022/03/26 17:00:30;;;;;;;;;;;;;;;;;;5030497;28;19967;-77
2022/03/26 17:02:59;;;;;;;;;;;;;;;;;;5015751;28;19979;-76
2022/03/26 17:05:31;;;;;;;;;;;;;;;;;;5015513;28;19950;-79
2022/03/26 17:08:00;;;;;;;;;;;;;;;;;;5015537;28;19961;-80